TOM23 EGKK-EGPH
Flight info
| Callsign | TOM23 |
|---|---|
| Flight time | N/A |
| Altitude | 38000 |
| Route | LAM1Z LAM L10 BPK UN601 RIBEL DCT INPIP INPIP1E |
| Aircraft | A339/M-V/N |
Departure
| Time | N/A |
|---|---|
| Airport | London Gatwick Airport (EGKK) |
Arrival
| Time | 2026-05-04 21:08 |
|---|---|
| Airport | Edinburgh Airport (EGPH) |
| Time | Latitude | Longitude | Altitude | Speed | Heading |
|---|---|---|---|---|---|
| 2026-05-04 20:20 | 51.92181 | -0.27056 | 22364 ft | 406 kts | 327° |
| 2026-05-04 20:20 | 51.94624 | -0.29398 | 22915 ft | 409 kts | 327° |
| 2026-05-04 20:20 | 51.97086 | -0.31759 | 23487 ft | 413 kts | 327° |
| 2026-05-04 20:21 | 51.99573 | -0.34148 | 23969 ft | 415 kts | 327° |
| 2026-05-04 20:21 | 52.02063 | -0.36542 | 24489 ft | 418 kts | 327° |
| 2026-05-04 20:21 | 52.07100 | -0.41396 | 25461 ft | 423 kts | 327° |
| 2026-05-04 20:22 | 52.09625 | -0.43834 | 25948 ft | 425 kts | 327° |
| 2026-05-04 20:22 | 52.12172 | -0.46296 | 26408 ft | 428 kts | 327° |
| 2026-05-04 20:22 | 52.14730 | -0.48772 | 26876 ft | 431 kts | 327° |
| 2026-05-04 20:22 | 52.17333 | -0.51296 | 27348 ft | 433 kts | 327° |
| 2026-05-04 20:23 | 52.19910 | -0.53798 | 27797 ft | 436 kts | 327° |
| 2026-05-04 20:23 | 52.22549 | -0.56363 | 28242 ft | 439 kts | 327° |
| 2026-05-04 20:23 | 52.25175 | -0.58919 | 28670 ft | 441 kts | 327° |
| 2026-05-04 20:23 | 52.27831 | -0.61508 | 29082 ft | 444 kts | 327° |
| 2026-05-04 20:24 | 52.30485 | -0.64099 | 29515 ft | 447 kts | 327° |
| 2026-05-04 20:24 | 52.33176 | -0.66730 | 29931 ft | 450 kts | 327° |
| 2026-05-04 20:24 | 52.35876 | -0.69373 | 30329 ft | 452 kts | 327° |
| 2026-05-04 20:24 | 52.38589 | -0.72034 | 30727 ft | 455 kts | 327° |
| 2026-05-04 20:25 | 52.41284 | -0.74679 | 31101 ft | 457 kts | 328° |
| 2026-05-04 20:25 | 52.44019 | -0.77368 | 31464 ft | 460 kts | 328° |
| 2026-05-04 20:25 | 52.46755 | -0.80061 | 31826 ft | 462 kts | 328° |
| 2026-05-04 20:25 | 52.49520 | -0.82788 | 32198 ft | 464 kts | 328° |
| 2026-05-04 20:26 | 52.52311 | -0.85544 | 32534 ft | 466 kts | 328° |
| 2026-05-04 20:26 | 52.55096 | -0.88298 | 32840 ft | 468 kts | 328° |
| 2026-05-04 20:26 | 52.57882 | -0.91058 | 33108 ft | 470 kts | 328° |
| 2026-05-04 20:26 | 52.60675 | -0.93830 | 33329 ft | 472 kts | 328° |
| 2026-05-04 20:27 | 52.63510 | -0.96647 | 33517 ft | 473 kts | 328° |
| 2026-05-04 20:27 | 52.66317 | -0.99440 | 33767 ft | 474 kts | 328° |
| 2026-05-04 20:27 | 52.69130 | -1.02244 | 34062 ft | 472 kts | 328° |
| 2026-05-04 20:27 | 52.71937 | -1.05048 | 34291 ft | 472 kts | 329° |
| 2026-05-04 20:28 | 52.74773 | -1.07885 | 34496 ft | 472 kts | 329° |
| 2026-05-04 20:28 | 52.77556 | -1.10673 | 34693 ft | 473 kts | 329° |
| 2026-05-04 20:28 | 52.80363 | -1.13488 | 34900 ft | 473 kts | 329° |
| 2026-05-04 20:28 | 52.83165 | -1.16302 | 35105 ft | 473 kts | 329° |
| 2026-05-04 20:29 | 52.85996 | -1.19148 | 35323 ft | 472 kts | 329° |
| 2026-05-04 20:29 | 52.88780 | -1.21952 | 35525 ft | 472 kts | 329° |
| 2026-05-04 20:29 | 52.91600 | -1.24798 | 35736 ft | 472 kts | 329° |
| 2026-05-04 20:29 | 52.94401 | -1.27628 | 35935 ft | 472 kts | 329° |
| 2026-05-04 20:30 | 52.97223 | -1.30484 | 36143 ft | 472 kts | 329° |
| 2026-05-04 20:30 | 53.00009 | -1.33308 | 36356 ft | 472 kts | 329° |
| 2026-05-04 20:30 | 53.02825 | -1.36167 | 36564 ft | 472 kts | 329° |
| 2026-05-04 20:30 | 53.05611 | -1.38999 | 36761 ft | 472 kts | 329° |
| 2026-05-04 20:31 | 53.08421 | -1.41860 | 36958 ft | 472 kts | 328° |
| 2026-05-04 20:31 | 53.11213 | -1.44707 | 37170 ft | 472 kts | 328° |
| 2026-05-04 20:31 | 53.13998 | -1.47552 | 37347 ft | 472 kts | 328° |
| 2026-05-04 20:31 | 53.16813 | -1.50431 | 37557 ft | 472 kts | 328° |
| 2026-05-04 20:32 | 53.19621 | -1.53308 | 37758 ft | 472 kts | 328° |
| 2026-05-04 20:32 | 53.22411 | -1.56171 | 37959 ft | 472 kts | 328° |
| 2026-05-04 20:32 | 53.27983 | -1.61903 | 38051 ft | 470 kts | 328° |
| 2026-05-04 20:33 | 53.33560 | -1.67660 | 38047 ft | 470 kts | 328° |
| 2026-05-04 20:33 | 53.39122 | -1.73416 | 38046 ft | 469 kts | 328° |
| 2026-05-04 20:34 | 53.44644 | -1.79150 | 38053 ft | 469 kts | 328° |
| 2026-05-04 20:34 | 53.50161 | -1.84894 | 38057 ft | 468 kts | 328° |
| 2026-05-04 20:35 | 53.55700 | -1.90672 | 38061 ft | 467 kts | 328° |
| 2026-05-04 20:35 | 53.61195 | -1.96422 | 38055 ft | 467 kts | 328° |
| 2026-05-04 20:36 | 53.66713 | -2.02227 | 38055 ft | 466 kts | 328° |
| 2026-05-04 20:36 | 53.72222 | -2.08031 | 38047 ft | 465 kts | 328° |
| 2026-05-04 20:37 | 53.77990 | -2.12768 | 38050 ft | 465 kts | 339° |
| 2026-05-04 20:37 | 53.84001 | -2.16830 | 38051 ft | 465 kts | 338° |
| 2026-05-04 20:38 | 53.89989 | -2.20958 | 38045 ft | 465 kts | 338° |
| 2026-05-04 20:38 | 53.95963 | -2.25066 | 38049 ft | 465 kts | 338° |
| 2026-05-04 20:39 | 54.01967 | -2.29198 | 38051 ft | 465 kts | 337° |
| 2026-05-04 20:39 | 54.07957 | -2.33333 | 38050 ft | 465 kts | 337° |
| 2026-05-04 20:40 | 54.13968 | -2.37493 | 38055 ft | 465 kts | 337° |
| 2026-05-04 20:40 | 54.19949 | -2.41646 | 38056 ft | 465 kts | 337° |
| 2026-05-04 20:41 | 54.25915 | -2.45803 | 38054 ft | 464 kts | 337° |
| 2026-05-04 20:41 | 54.31897 | -2.49984 | 38049 ft | 464 kts | 337° |
| 2026-05-04 20:42 | 54.37898 | -2.54191 | 38049 ft | 464 kts | 337° |
| 2026-05-04 20:42 | 54.43837 | -2.58368 | 38024 ft | 464 kts | 337° |
| 2026-05-04 20:43 | 54.46839 | -2.60484 | 37789 ft | 462 kts | 337° |
| 2026-05-04 20:43 | 54.49789 | -2.62567 | 37247 ft | 462 kts | 336° |
| 2026-05-04 20:43 | 54.52762 | -2.64669 | 36405 ft | 462 kts | 336° |
| 2026-05-04 20:43 | 54.55769 | -2.66800 | 35344 ft | 464 kts | 336° |
| 2026-05-04 20:44 | 54.58748 | -2.68913 | 34135 ft | 466 kts | 336° |
| 2026-05-04 20:44 | 54.61734 | -2.71035 | 32686 ft | 467 kts | 336° |
| 2026-05-04 20:44 | 54.64761 | -2.73188 | 31464 ft | 467 kts | 336° |
| 2026-05-04 20:44 | 54.67735 | -2.75307 | 30679 ft | 460 kts | 336° |
| 2026-05-04 20:45 | 54.70674 | -2.77403 | 30132 ft | 451 kts | 336° |
| 2026-05-04 20:45 | 54.73549 | -2.79459 | 29386 ft | 446 kts | 336° |
| 2026-05-04 20:45 | 54.76395 | -2.81498 | 28723 ft | 439 kts | 336° |
| 2026-05-04 20:45 | 54.79223 | -2.83527 | 28043 ft | 434 kts | 335° |
| 2026-05-04 20:46 | 54.81971 | -2.85501 | 27378 ft | 429 kts | 335° |
| 2026-05-04 20:46 | 54.84699 | -2.87464 | 26723 ft | 424 kts | 335° |
| 2026-05-04 20:46 | 54.87430 | -2.89431 | 26233 ft | 419 kts | 335° |
| 2026-05-04 20:46 | 54.90110 | -2.91368 | 25995 ft | 427 kts | 335° |
| 2026-05-04 20:47 | 54.92855 | -2.93353 | 25763 ft | 427 kts | 335° |
| 2026-05-04 20:47 | 54.95584 | -2.95328 | 25558 ft | 424 kts | 335° |
| 2026-05-04 20:47 | 54.98322 | -2.97312 | 25326 ft | 423 kts | 335° |
| 2026-05-04 20:47 | 55.01035 | -2.99281 | 25111 ft | 422 kts | 335° |
| 2026-05-04 20:48 | 55.03727 | -3.01238 | 24899 ft | 420 kts | 335° |
| 2026-05-04 20:48 | 55.06436 | -3.03210 | 24688 ft | 419 kts | 335° |
| 2026-05-04 20:48 | 55.09111 | -3.05159 | 24470 ft | 418 kts | 335° |
| 2026-05-04 20:48 | 55.11773 | -3.07103 | 24258 ft | 416 kts | 334° |
| 2026-05-04 20:49 | 55.14434 | -3.09049 | 24058 ft | 415 kts | 334° |
| 2026-05-04 20:49 | 55.17121 | -3.11015 | 23851 ft | 413 kts | 334° |
| 2026-05-04 20:49 | 55.19704 | -3.12905 | 23642 ft | 400 kts | 334° |
| 2026-05-04 20:49 | 55.22231 | -3.14756 | 23387 ft | 384 kts | 334° |
| 2026-05-04 20:50 | 55.24635 | -3.16522 | 23159 ft | 370 kts | 334° |
| 2026-05-04 20:50 | 55.26979 | -3.18247 | 22900 ft | 356 kts | 334° |
| 2026-05-04 20:50 | 55.29282 | -3.19606 | 22645 ft | 346 kts | 343° |
| 2026-05-04 20:50 | 55.31643 | -3.20098 | 22335 ft | 344 kts | 355° |
| 2026-05-04 20:51 | 55.34067 | -3.19829 | 21698 ft | 350 kts | 2° |
| 2026-05-04 20:51 | 55.36487 | -3.19404 | 21102 ft | 349 kts | 2° |
| 2026-05-04 20:51 | 55.38883 | -3.19004 | 20567 ft | 346 kts | 1° |
| 2026-05-04 20:51 | 55.41276 | -3.18617 | 20044 ft | 343 kts | 1° |
| 2026-05-04 20:52 | 55.43639 | -3.18245 | 19529 ft | 340 kts | 1° |
| 2026-05-04 20:52 | 55.45995 | -3.17877 | 19014 ft | 337 kts | 1° |
| 2026-05-04 20:52 | 55.48313 | -3.17517 | 18343 ft | 332 kts | 1° |
| 2026-05-04 20:52 | 55.50584 | -3.17164 | 17546 ft | 328 kts | 1° |
| 2026-05-04 20:53 | 55.52849 | -3.16812 | 16745 ft | 324 kts | 1° |
| 2026-05-04 20:53 | 55.55093 | -3.16462 | 15973 ft | 320 kts | 1° |
| 2026-05-04 20:53 | 55.57290 | -3.16118 | 15222 ft | 316 kts | 1° |
| 2026-05-04 20:53 | 55.59487 | -3.15775 | 14482 ft | 313 kts | 1° |
| 2026-05-04 20:54 | 55.61635 | -3.15439 | 13761 ft | 309 kts | 1° |
| 2026-05-04 20:54 | 55.63760 | -3.15107 | 12970 ft | 305 kts | 1° |
| 2026-05-04 20:54 | 55.65823 | -3.14777 | 12653 ft | 286 kts | 1° |
| 2026-05-04 20:54 | 55.67763 | -3.14464 | 12082 ft | 278 kts | 1° |
| 2026-05-04 20:55 | 55.69610 | -3.14169 | 11823 ft | 259 kts | 1° |
| 2026-05-04 20:55 | 55.71363 | -3.13885 | 11437 ft | 246 kts | 1° |
| 2026-05-04 20:55 | 55.73047 | -3.13589 | 10873 ft | 244 kts | 2° |
| 2026-05-04 20:55 | 55.74742 | -3.13183 | 10286 ft | 244 kts | 4° |
| 2026-05-04 20:56 | 55.76413 | -3.12736 | 9757 ft | 241 kts | 4° |
| 2026-05-04 20:56 | 55.78054 | -3.12297 | 9191 ft | 238 kts | 5° |
| 2026-05-04 20:56 | 55.79671 | -3.11874 | 8653 ft | 235 kts | 5° |
| 2026-05-04 20:56 | 55.81297 | -3.11460 | 8124 ft | 232 kts | 5° |
| 2026-05-04 20:57 | 55.82866 | -3.11064 | 7761 ft | 224 kts | 5° |
| 2026-05-04 20:57 | 55.84371 | -3.10558 | 7475 ft | 219 kts | 18° |
| 2026-05-04 20:57 | 55.85653 | -3.09031 | 7263 ft | 226 kts | 39° |
| 2026-05-04 20:57 | 55.86804 | -3.07162 | 6933 ft | 223 kts | 39° |
| 2026-05-04 20:58 | 55.87951 | -3.05299 | 6491 ft | 220 kts | 39° |
| 2026-05-04 20:58 | 55.89066 | -3.03490 | 6031 ft | 217 kts | 39° |
| 2026-05-04 20:58 | 55.90182 | -3.01683 | 5547 ft | 215 kts | 39° |
| 2026-05-04 20:58 | 55.91291 | -2.99889 | 5069 ft | 212 kts | 39° |
| 2026-05-04 20:59 | 55.92370 | -2.98131 | 4617 ft | 210 kts | 39° |
| 2026-05-04 20:59 | 55.93440 | -2.96382 | 4135 ft | 210 kts | 39° |
| 2026-05-04 20:59 | 55.94512 | -2.94620 | 3682 ft | 210 kts | 39° |
| 2026-05-04 20:59 | 55.95594 | -2.92846 | 3248 ft | 209 kts | 39° |
| 2026-05-04 21:00 | 55.96721 | -2.91306 | 3010 ft | 206 kts | 22° |
| 2026-05-04 21:00 | 55.98055 | -2.90467 | 2987 ft | 202 kts | 10° |
| 2026-05-04 21:00 | 55.99425 | -2.89895 | 2978 ft | 203 kts | 9° |
| 2026-05-04 21:00 | 56.00814 | -2.89328 | 2978 ft | 203 kts | 9° |
| 2026-05-04 21:01 | 56.02180 | -2.88769 | 2977 ft | 202 kts | 9° |
| 2026-05-04 21:01 | 56.03563 | -2.88262 | 2958 ft | 202 kts | 1° |
| 2026-05-04 21:01 | 56.04894 | -2.88736 | 2967 ft | 196 kts | 329° |
| 2026-05-04 21:01 | 56.05844 | -2.90427 | 2989 ft | 193 kts | 300° |
| 2026-05-04 21:02 | 56.06508 | -2.92508 | 2976 ft | 194 kts | 299° |
| 2026-05-04 21:02 | 56.07174 | -2.94596 | 2977 ft | 194 kts | 299° |
| 2026-05-04 21:02 | 56.07727 | -2.96806 | 2974 ft | 195 kts | 283° |
| 2026-05-04 21:02 | 56.07649 | -2.99208 | 2985 ft | 199 kts | 256° |
| 2026-05-04 21:03 | 56.07071 | -3.01492 | 2981 ft | 201 kts | 243° |
| 2026-05-04 21:03 | 56.06344 | -3.03615 | 2981 ft | 201 kts | 240° |
| 2026-05-04 21:03 | 56.05625 | -3.05737 | 2984 ft | 200 kts | 242° |
| 2026-05-04 21:03 | 56.04899 | -3.07906 | 2988 ft | 202 kts | 241° |
| 2026-05-04 21:04 | 56.04187 | -3.10027 | 2987 ft | 197 kts | 242° |
| 2026-05-04 21:04 | 56.03496 | -3.12080 | 2989 ft | 188 kts | 242° |
| 2026-05-04 21:04 | 56.02839 | -3.14032 | 2957 ft | 181 kts | 242° |
| 2026-05-04 21:04 | 56.02194 | -3.15948 | 2787 ft | 180 kts | 242° |
| 2026-05-04 21:05 | 56.01546 | -3.17873 | 2516 ft | 178 kts | 242° |
| 2026-05-04 21:05 | 56.00917 | -3.19735 | 2261 ft | 175 kts | 242° |
| 2026-05-04 21:05 | 56.00290 | -3.21590 | 2021 ft | 172 kts | 243° |
| 2026-05-04 21:05 | 55.99686 | -3.23383 | 1791 ft | 168 kts | 243° |
| 2026-05-04 21:06 | 55.99106 | -3.25099 | 1562 ft | 151 kts | 243° |
| 2026-05-04 21:06 | 55.98572 | -3.26691 | 1366 ft | 155 kts | 243° |
| 2026-05-04 21:06 | 55.98028 | -3.28296 | 1141 ft | 150 kts | 241° |
| 2026-05-04 21:06 | 55.97507 | -3.29832 | 909 ft | 138 kts | 242° |
| 2026-05-04 21:07 | 55.97030 | -3.31249 | 588 ft | 128 kts | 243° |
| 2026-05-04 21:07 | 55.96573 | -3.32583 | 572 ft | 133 kts | 240° |
| 2026-05-04 21:07 | 55.96248 | -3.33560 | 479 ft | 141 kts | 242° |
| 2026-05-04 21:07 | 55.95757 | -3.35018 | 247 ft | 130 kts | 240° |
| 2026-05-04 21:08 | 55.95144 | -3.36833 | 137 ft | 130 kts | 240° |
| 2026-05-04 21:08 | 55.94855 | -3.37707 | 120 ft | 109 kts | 239° |
| 2026-05-04 21:08 | 55.94559 | -3.38549 | 121 ft | 51 kts | 237° |
| 2026-05-04 21:08 | 55.94467 | -3.38813 | 125 ft | 27 kts | 238° |
| 2026-05-04 21:09 | 55.94371 | -3.38944 | 126 ft | 17 kts | 167° |
| 2026-05-04 21:09 | 55.94301 | -3.38880 | 125 ft | 0 kts | 150° |
| 2026-05-04 21:10 | 55.94300 | -3.38879 | 125 ft | 3 kts | 149° |
| 2026-05-04 21:10 | 55.94295 | -3.38757 | 124 ft | 16 kts | 68° |
| 2026-05-04 21:10 | 55.94345 | -3.38607 | 123 ft | 10 kts | 59° |
| 2026-05-04 21:11 | 55.94389 | -3.38477 | 120 ft | 0 kts | 59° |
| 2026-05-04 21:12 | 55.94394 | -3.38462 | 118 ft | 5 kts | 59° |
| 2026-05-04 21:12 | 55.94426 | -3.38369 | 121 ft | 12 kts | 59° |
| 2026-05-04 21:12 | 55.94479 | -3.38212 | 116 ft | 17 kts | 58° |
| 2026-05-04 21:12 | 55.94544 | -3.38020 | 117 ft | 19 kts | 59° |
| 2026-05-04 21:13 | 55.94617 | -3.37807 | 119 ft | 21 kts | 59° |
| 2026-05-04 21:13 | 55.94686 | -3.37602 | 119 ft | 18 kts | 58° |
| 2026-05-04 21:13 | 55.94761 | -3.37387 | 115 ft | 22 kts | 59° |
| 2026-05-04 21:13 | 55.94845 | -3.37130 | 112 ft | 25 kts | 59° |
| 2026-05-04 21:14 | 55.94939 | -3.36856 | 112 ft | 26 kts | 58° |
| 2026-05-04 21:14 | 55.95034 | -3.36574 | 114 ft | 27 kts | 59° |
| 2026-05-04 21:14 | 55.95131 | -3.36288 | 113 ft | 27 kts | 60° |
| 2026-05-04 21:14 | 55.95136 | -3.36237 | 114 ft | 3 kts | 89° |
| 2026-05-04 21:15 | 55.95125 | -3.36177 | 111 ft | 7 kts | 108° |
| 2026-05-04 21:15 | 55.95106 | -3.36067 | 115 ft | 11 kts | 106° |
| 2026-05-04 21:15 | 55.95075 | -3.35947 | 112 ft | 9 kts | 134° |
| 2026-05-04 21:15 | 55.95040 | -3.35984 | 110 ft | 6 kts | 239° |
| 2026-05-04 21:16 | 55.95036 | -3.36001 | 113 ft | 1 kts | 246° |
| 2026-05-04 21:16 | 55.95032 | -3.36020 | 111 ft | 3 kts | 247° |
| 2026-05-04 21:16 | 55.95024 | -3.36055 | 111 ft | 3 kts | 248° |
| 2026-05-04 21:16 | 55.95020 | -3.36071 | 112 ft | 0 kts | 248° |